createdAt,value
2019-03-20T00:00:54.487Z,0
2019-03-20T00:01:54.641Z,0
2019-03-20T00:02:54.756Z,0
2019-03-20T00:03:55.843Z,0
2019-03-20T00:04:54.950Z,0
2019-03-20T00:05:55.043Z,0
2019-03-20T00:06:55.166Z,0
2019-03-20T00:07:55.261Z,0
2019-03-20T00:08:55.389Z,0
2019-03-20T00:09:55.488Z,0
2019-03-20T00:10:55.594Z,0
2019-03-20T00:11:55.737Z,0
2019-03-20T00:12:55.810Z,0
2019-03-20T00:13:55.947Z,0
2019-03-20T00:14:56.091Z,0
2019-03-20T00:15:56.189Z,0
2019-03-20T00:16:56.324Z,0
2019-03-20T00:17:56.405Z,0
2019-03-20T00:18:56.508Z,0
2019-03-20T00:19:56.611Z,0
2019-03-20T00:20:56.714Z,0
2019-03-20T00:21:56.838Z,0
2019-03-20T00:22:56.973Z,0
2019-03-20T00:23:57.078Z,0
2019-03-20T00:24:57.200Z,0
2019-03-20T00:25:57.322Z,0
2019-03-20T00:26:57.460Z,0
2019-03-20T00:27:57.569Z,0
2019-03-20T00:28:57.676Z,0
2019-03-20T00:29:57.785Z,0
2019-03-20T00:30:57.900Z,0
2019-03-20T00:31:58.064Z,0
2019-03-20T00:32:58.158Z,0
2019-03-20T00:33:58.301Z,0
2019-03-20T00:35:00.987Z,0
2019-03-20T00:35:58.509Z,0
2019-03-20T00:36:58.655Z,0
2019-03-20T00:37:58.608Z,0
2019-03-20T00:38:58.613Z,0
2019-03-20T00:39:58.719Z,0
2019-03-20T00:40:58.826Z,0
2019-03-20T00:41:58.992Z,0
2019-03-20T00:42:58.922Z,0
2019-03-20T00:43:59.023Z,0
2019-03-20T00:44:59.127Z,0
2019-03-20T00:45:59.121Z,0
2019-03-20T00:46:59.351Z,0
2019-03-20T00:48:00.272Z,0
2019-03-20T00:48:59.374Z,0
2019-03-20T00:49:59.466Z,0
2019-03-20T00:50:59.567Z,0
2019-03-20T00:51:59.698Z,0
2019-03-20T00:52:59.825Z,0
2019-03-20T00:53:59.923Z,0
2019-03-20T00:55:00.032Z,0
2019-03-20T00:56:00.143Z,0
2019-03-20T00:57:00.284Z,0
2019-03-20T00:58:00.377Z,0
2019-03-20T00:59:00.491Z,0
2019-03-20T01:00:00.585Z,0
2019-03-20T01:01:00.689Z,0
2019-03-20T01:02:00.816Z,0
2019-03-20T01:03:00.942Z,0
2019-03-20T01:04:01.041Z,0
2019-03-20T01:05:08.389Z,0
2019-03-20T01:06:02.229Z,0
2019-03-20T01:07:01.336Z,0
2019-03-20T01:08:01.464Z,0
2019-03-20T01:09:01.583Z,0
2019-03-20T01:10:01.680Z,0
2019-03-20T01:11:01.786Z,0
2019-03-20T01:12:01.894Z,0
2019-03-20T01:13:01.929Z,0
2019-03-20T01:14:02.042Z,0
2019-03-20T01:15:02.154Z,0
2019-03-20T01:16:02.262Z,0
2019-03-20T01:17:03.351Z,0
2019-03-20T01:18:02.492Z,0
2019-03-20T01:19:02.603Z,0
2019-03-20T01:20:02.723Z,0
2019-03-20T01:21:02.829Z,0
2019-03-20T01:22:02.951Z,0
2019-03-20T01:23:03.089Z,0
2019-03-20T01:24:03.200Z,0
2019-03-20T01:25:03.297Z,0
2019-03-20T01:26:03.402Z,0
2019-03-20T01:27:03.506Z,0
2019-03-20T01:28:03.581Z,0
2019-03-20T01:29:03.680Z,0
2019-03-20T01:30:03.769Z,0
2019-03-20T01:31:03.866Z,0
2019-03-20T01:32:03.968Z,0
2019-03-20T01:33:04.113Z,0
2019-03-20T01:34:04.229Z,0
2019-03-20T01:35:04.319Z,0
2019-03-20T01:36:05.407Z,0
2019-03-20T01:37:04.527Z,0
2019-03-20T01:38:04.504Z,0
2019-03-20T01:39:04.657Z,0
2019-03-20T01:40:04.755Z,0
2019-03-20T01:41:04.861Z,0
2019-03-20T01:42:04.988Z,0
2019-03-20T01:43:05.124Z,0
2019-03-20T01:44:05.233Z,0
2019-03-20T01:45:05.391Z,0
2019-03-20T01:46:05.430Z,0
2019-03-20T01:47:06.775Z,0
2019-03-20T01:48:05.567Z,0
2019-03-20T01:49:05.678Z,0
2019-03-20T01:50:05.795Z,0
2019-03-20T01:51:05.895Z,0
2019-03-20T01:52:06.003Z,0
2019-03-20T01:53:06.166Z,0
2019-03-20T01:54:06.260Z,0
2019-03-20T01:55:06.410Z,0
2019-03-20T01:56:06.497Z,0
2019-03-20T01:57:06.601Z,0
2019-03-20T01:58:06.803Z,0
2019-03-20T01:59:06.787Z,0
2019-03-20T02:00:06.774Z,0
2019-03-20T02:01:06.882Z,0
2019-03-20T02:02:06.985Z,0
2019-03-20T02:03:07.091Z,0
2019-03-20T02:04:07.198Z,0
2019-03-20T02:05:07.310Z,0
2019-03-20T02:06:07.423Z,0
2019-03-20T02:07:07.526Z,0
2019-03-20T02:08:07.660Z,0
2019-03-20T02:09:07.777Z,0
2019-03-20T02:10:07.877Z,0
2019-03-20T02:11:07.888Z,0
2019-03-20T02:12:07.997Z,0
2019-03-20T02:13:08.150Z,0
2019-03-20T02:14:08.236Z,0
2019-03-20T02:15:09.333Z,0
2019-03-20T02:16:08.456Z,0
2019-03-20T02:17:08.550Z,0
2019-03-20T02:18:08.685Z,0
2019-03-20T02:19:08.782Z,0
2019-03-20T02:20:08.878Z,0
2019-03-20T02:21:08.976Z,0
2019-03-20T02:22:09.121Z,0
2019-03-20T02:23:09.253Z,0
2019-03-20T02:24:09.376Z,0
2019-03-20T02:25:09.481Z,0
2019-03-20T02:26:09.591Z,0
2019-03-20T02:27:09.702Z,0
2019-03-20T02:28:09.867Z,0
2019-03-20T02:29:09.833Z,0
2019-03-20T02:30:09.925Z,0
2019-03-20T02:31:10.036Z,0
2019-03-20T02:32:10.176Z,0
2019-03-20T02:33:10.332Z,0
2019-03-20T02:34:10.270Z,0
2019-03-20T02:35:10.368Z,0
2019-03-20T02:36:10.465Z,0
2019-03-20T02:37:10.575Z,0
2019-03-20T02:38:10.725Z,0
2019-03-20T02:39:10.821Z,0
2019-03-20T02:40:10.970Z,0
2019-03-20T02:41:11.068Z,0
2019-03-20T02:42:11.183Z,0
2019-03-20T02:43:11.427Z,0
2019-03-20T02:44:11.383Z,0
2019-03-20T02:45:11.501Z,0
2019-03-20T02:46:11.598Z,0
2019-03-20T02:47:11.722Z,0
2019-03-20T02:48:11.820Z,0
2019-03-20T02:49:11.941Z,0
2019-03-20T02:50:12.054Z,0
2019-03-20T02:51:12.150Z,0
2019-03-20T02:52:12.283Z,0
2019-03-20T02:53:12.376Z,0
2019-03-20T02:54:12.496Z,0
2019-03-20T02:55:12.545Z,0
2019-03-20T02:56:12.666Z,0
2019-03-20T02:57:12.761Z,0
2019-03-20T02:58:12.856Z,0
2019-03-20T02:59:12.877Z,0
2019-03-20T03:00:12.990Z,0
2019-03-20T03:01:13.096Z,0
2019-03-20T03:02:13.206Z,0
2019-03-20T03:03:13.309Z,0
2019-03-20T03:04:13.410Z,0
2019-03-20T03:05:13.528Z,0
2019-03-20T03:06:13.640Z,0
2019-03-20T03:07:13.748Z,0
2019-03-20T03:08:13.843Z,0
2019-03-20T03:09:13.978Z,0
2019-03-20T03:10:14.078Z,0
2019-03-20T03:11:14.181Z,0
2019-03-20T03:12:14.283Z,0
2019-03-20T03:13:15.375Z,0
2019-03-20T03:14:14.506Z,0
2019-03-20T03:15:14.611Z,0
2019-03-20T03:16:14.714Z,0
2019-03-20T03:17:14.812Z,0
2019-03-20T03:18:14.915Z,0
2019-03-20T03:19:15.059Z,0
2019-03-20T03:20:15.158Z,0
2019-03-20T03:21:15.256Z,0
2019-03-20T03:22:15.348Z,0
2019-03-20T03:23:15.443Z,0
2019-03-20T03:24:15.611Z,0
2019-03-20T03:25:15.728Z,0
2019-03-20T03:26:15.827Z,0
2019-03-20T03:27:15.935Z,0
2019-03-20T03:28:16.043Z,0
2019-03-20T03:29:16.071Z,0
2019-03-20T03:30:16.338Z,0
2019-03-20T03:31:16.330Z,0
2019-03-20T03:32:16.543Z,0
2019-03-20T03:33:16.497Z,0
2019-03-20T03:34:16.591Z,0
2019-03-20T03:35:19.279Z,0
2019-03-20T03:36:21.391Z,0
2019-03-20T03:37:16.864Z,0
2019-03-20T03:38:16.971Z,0
2019-03-20T03:39:17.098Z,0
2019-03-20T03:40:17.211Z,0
2019-03-20T03:41:17.302Z,0
2019-03-20T03:42:17.401Z,0
2019-03-20T03:43:17.522Z,0
2019-03-20T03:44:17.644Z,0
2019-03-20T03:45:17.744Z,0
2019-03-20T03:46:17.852Z,0
2019-03-20T03:47:17.968Z,0
2019-03-20T03:48:18.072Z,0
2019-03-20T03:49:18.198Z,0
2019-03-20T03:50:18.304Z,0
2019-03-20T03:51:18.406Z,0
2019-03-20T03:52:18.521Z,0
2019-03-20T03:53:18.660Z,0
2019-03-20T03:54:18.783Z,0
2019-03-20T03:55:18.897Z,0
2019-03-20T03:56:18.990Z,0
2019-03-20T03:57:19.145Z,0
2019-03-20T03:58:19.105Z,0
2019-03-20T03:59:19.220Z,0
2019-03-20T04:00:19.340Z,0
2019-03-20T04:01:19.501Z,0
2019-03-20T04:02:19.475Z,0
2019-03-20T04:03:19.572Z,0
2019-03-20T04:04:19.791Z,0
2019-03-20T04:05:19.722Z,0
2019-03-20T04:06:34.498Z,0
2019-03-20T04:07:23.474Z,0
2019-03-20T04:08:20.123Z,0
2019-03-20T04:09:20.146Z,0
2019-03-20T04:10:20.241Z,0
2019-03-20T04:11:20.371Z,0
2019-03-20T04:12:20.460Z,0
2019-03-20T04:13:20.554Z,0
2019-03-20T04:14:20.677Z,0
2019-03-20T04:15:20.806Z,0
2019-03-20T04:16:20.915Z,0
2019-03-20T04:17:21.024Z,0
2019-03-20T04:18:21.137Z,0
2019-03-20T04:19:21.258Z,0
2019-03-20T04:20:21.392Z,0
2019-03-20T04:21:21.470Z,0
2019-03-20T04:22:21.562Z,0
2019-03-20T04:23:21.662Z,0
2019-03-20T04:24:21.785Z,0
2019-03-20T04:25:21.891Z,0
2019-03-20T04:26:21.993Z,0
2019-03-20T04:27:22.111Z,0
2019-03-20T04:28:22.270Z,0
2019-03-20T04:29:22.277Z,0
2019-03-20T04:30:22.252Z,0
2019-03-20T04:31:22.400Z,0
2019-03-20T04:32:22.395Z,0
2019-03-20T04:33:22.518Z,0
2019-03-20T04:34:22.667Z,0
2019-03-20T04:35:22.785Z,0
2019-03-20T04:36:22.879Z,0
2019-03-20T04:37:22.986Z,0
2019-03-20T04:38:23.080Z,0
2019-03-20T04:39:23.243Z,0
2019-03-20T04:40:23.343Z,0
2019-03-20T04:41:23.445Z,0
2019-03-20T04:42:23.572Z,0
2019-03-20T04:43:23.707Z,0
2019-03-20T04:44:23.850Z,0
2019-03-20T04:45:23.953Z,0
2019-03-20T04:46:24.045Z,0
2019-03-20T04:47:24.140Z,0
2019-03-20T04:48:24.262Z,0
2019-03-20T04:49:24.398Z,0
2019-03-20T04:50:24.500Z,0
2019-03-20T04:51:24.615Z,0
2019-03-20T04:52:24.717Z,0
2019-03-20T04:53:24.821Z,0
2019-03-20T04:54:24.982Z,0
2019-03-20T04:55:25.081Z,0
2019-03-20T04:56:25.221Z,1
2019-03-20T04:57:25.317Z,1
2019-03-20T04:58:25.420Z,0
2019-03-20T04:59:25.557Z,1
2019-03-20T05:00:25.549Z,1
2019-03-20T05:01:25.633Z,1
2019-03-20T05:02:25.727Z,2
2019-03-20T05:03:25.826Z,2
2019-03-20T05:04:26.012Z,2
2019-03-20T05:05:25.932Z,2
2019-03-20T05:06:26.036Z,2
2019-03-20T05:07:26.167Z,4
2019-03-20T05:08:26.264Z,3
2019-03-20T05:09:26.439Z,5
2019-03-20T05:10:26.546Z,6
2019-03-20T05:11:26.657Z,7
2019-03-20T05:12:26.771Z,8
2019-03-20T05:13:26.866Z,10
2019-03-20T05:14:26.991Z,12
2019-03-20T05:15:27.114Z,14
2019-03-20T05:16:27.213Z,17
2019-03-20T05:17:27.341Z,21
2019-03-20T05:18:27.402Z,25
2019-03-20T05:19:27.558Z,29
2019-03-20T05:20:27.693Z,34
2019-03-20T05:21:27.806Z,40
2019-03-20T05:22:27.914Z,46
2019-03-20T05:23:28.011Z,54
2019-03-20T05:24:28.140Z,64
2019-03-20T05:25:28.270Z,72
2019-03-20T05:26:28.389Z,82
2019-03-20T05:27:28.492Z,94
2019-03-20T05:28:28.598Z,105
2019-03-20T05:29:28.720Z,117
2019-03-20T05:30:28.727Z,132
2019-03-20T05:31:28.820Z,144
2019-03-20T05:32:28.958Z,161
2019-03-20T05:33:29.083Z,178
2019-03-20T05:34:29.236Z,191
2019-03-20T05:35:29.338Z,212
2019-03-20T05:36:29.411Z,233
2019-03-20T05:37:29.494Z,248
2019-03-20T05:38:29.607Z,271
2019-03-20T05:39:29.695Z,293
2019-03-20T05:40:29.709Z,322
2019-03-20T05:41:29.778Z,351
2019-03-20T05:42:29.807Z,385
2019-03-20T05:43:29.856Z,405
2019-03-20T05:44:29.937Z,439
2019-03-20T05:45:30.018Z,471
2019-03-20T05:46:30.061Z,503
2019-03-20T05:47:30.123Z,525
2019-03-20T05:48:30.229Z,550
2019-03-20T05:49:30.283Z,584
2019-03-20T05:50:30.409Z,608
2019-03-20T05:51:30.475Z,647
2019-03-20T05:52:30.538Z,663
2019-03-20T05:53:30.595Z,733
2019-03-20T05:54:30.674Z,755
2019-03-20T05:55:30.766Z,822
2019-03-20T05:56:30.830Z,809
2019-03-20T05:57:30.877Z,842
2019-03-20T05:58:30.922Z,853
2019-03-20T05:59:30.986Z,883
2019-03-20T06:00:31.055Z,908
2019-03-20T06:01:31.132Z,925
2019-03-20T06:02:31.179Z,932
2019-03-20T06:03:31.217Z,961
2019-03-20T06:04:31.257Z,1007
2019-03-20T06:05:31.318Z,1044
2019-03-20T06:06:31.351Z,1079
2019-03-20T06:07:31.398Z,1114
2019-03-20T06:08:31.483Z,1127
2019-03-20T06:09:31.491Z,1134
2019-03-20T06:10:31.555Z,1148
2019-03-20T06:11:31.599Z,1172
2019-03-20T06:12:31.636Z,1231
2019-03-20T06:13:31.729Z,1259
2019-03-20T06:14:31.824Z,1292
2019-03-20T06:15:31.909Z,1311
2019-03-20T06:16:31.982Z,1393
2019-03-20T06:17:32.024Z,1451
2019-03-20T06:18:32.064Z,1558
2019-03-20T06:19:32.150Z,1688
2019-03-20T06:20:33.790Z,1942
2019-03-20T06:21:32.289Z,2180
2019-03-20T06:22:32.358Z,2436
2019-03-20T06:23:32.423Z,2587
2019-03-20T06:24:32.462Z,2615
2019-03-20T06:25:32.541Z,2622
2019-03-20T06:26:32.590Z,2590
2019-03-20T06:27:32.658Z,2468
2019-03-20T06:28:32.694Z,2447
2019-03-20T06:29:32.749Z,2367
2019-03-20T06:30:32.819Z,2369
2019-03-20T06:31:32.874Z,2413
2019-03-20T06:32:32.920Z,2432
2019-03-20T06:33:32.966Z,2342
2019-03-20T06:34:33.026Z,2244
2019-03-20T06:35:33.108Z,2210
2019-03-20T06:36:33.164Z,2307
2019-03-20T06:37:33.204Z,2455
2019-03-20T06:38:34.246Z,2536
2019-03-20T06:39:33.282Z,2612
2019-03-20T06:40:33.362Z,2848
2019-03-20T06:41:33.412Z,2929
2019-03-20T06:42:33.477Z,2914
2019-03-20T06:43:33.563Z,2848
2019-03-20T06:44:33.605Z,2671
2019-03-20T06:45:33.707Z,2539
2019-03-20T06:46:33.762Z,2346
2019-03-20T06:47:34.841Z,2362
2019-03-20T06:48:33.885Z,2615
2019-03-20T06:49:33.932Z,2752
2019-03-20T06:50:34.031Z,2822
2019-03-20T06:51:34.081Z,2857
2019-03-20T06:52:34.131Z,2961
2019-03-20T06:53:34.207Z,3080
2019-03-20T06:54:34.242Z,3095
2019-03-20T06:55:34.333Z,3085
2019-03-20T06:56:34.412Z,3097
2019-03-20T06:57:34.458Z,3006
2019-03-20T06:58:34.506Z,3228
2019-03-20T06:59:34.550Z,3343
2019-03-20T07:00:34.625Z,3482
2019-03-20T07:01:34.661Z,3510
2019-03-20T07:02:34.732Z,3403
2019-03-20T07:03:34.768Z,3708
2019-03-20T07:04:34.818Z,3900
2019-03-20T07:05:34.903Z,3984
2019-03-20T07:06:35.019Z,3946
2019-03-20T07:07:43.415Z,3921
2019-03-20T07:08:36.058Z,3914
2019-03-20T07:09:35.095Z,3681
2019-03-20T07:10:35.150Z,4121
2019-03-20T07:11:35.250Z,4264
2019-03-20T07:12:35.295Z,4128
2019-03-20T07:13:35.340Z,4101
2019-03-20T07:14:35.385Z,4096
2019-03-20T07:15:35.525Z,4122
2019-03-20T07:16:35.691Z,4258
2019-03-20T07:17:35.724Z,4457
2019-03-20T07:18:35.823Z,4508
2019-03-20T07:19:35.895Z,4508
2019-03-20T07:20:35.936Z,4509
2019-03-20T07:21:36.011Z,4545
2019-03-20T07:22:36.091Z,4798
2019-03-20T07:23:36.142Z,4761
2019-03-20T07:24:36.202Z,4970
2019-03-20T07:25:36.279Z,4821
2019-03-20T07:26:36.414Z,4890
2019-03-20T07:27:36.471Z,4591
2019-03-20T07:28:36.515Z,4410
2019-03-20T07:29:36.589Z,4581
2019-03-20T07:30:36.634Z,5015
2019-03-20T07:31:36.669Z,5049
2019-03-20T07:32:36.721Z,5261
2019-03-20T07:33:36.786Z,5277
2019-03-20T07:34:36.842Z,5718
2019-03-20T07:35:36.883Z,6545
2019-03-20T07:36:36.966Z,6277
2019-03-20T07:37:37.001Z,6453
2019-03-20T07:38:38.032Z,6022
2019-03-20T07:39:37.087Z,6427
2019-03-20T07:40:37.129Z,6473
2019-03-20T07:41:37.237Z,6913
2019-03-20T07:42:37.289Z,7285
2019-03-20T07:43:37.420Z,7649
2019-03-20T07:44:37.469Z,7984
2019-03-20T07:45:37.518Z,8179
2019-03-20T07:46:37.539Z,8503
2019-03-20T07:47:37.578Z,8569
2019-03-20T07:48:37.633Z,8722
2019-03-20T07:49:37.686Z,8666
2019-03-20T07:50:37.741Z,8683
2019-03-20T07:51:37.849Z,8683
2019-03-20T07:52:37.874Z,8588
2019-03-20T07:53:37.915Z,8124
2019-03-20T07:54:37.953Z,7445
2019-03-20T07:55:38.003Z,7405
2019-03-20T07:56:38.069Z,7149
2019-03-20T07:57:38.106Z,7478
2019-03-20T07:58:38.132Z,7265
2019-03-20T07:59:38.174Z,7928
2019-03-20T08:00:38.218Z,8147
2019-03-20T08:01:38.281Z,8070
2019-03-20T08:02:38.348Z,7935
2019-03-20T08:03:38.387Z,7776
2019-03-20T08:04:38.430Z,7690
2019-03-20T08:05:38.497Z,7843
2019-03-20T08:06:38.569Z,7781
2019-03-20T08:07:38.611Z,7584
2019-03-20T08:08:38.659Z,7441
2019-03-20T08:09:38.793Z,7460
2019-03-20T08:10:38.766Z,7569
2019-03-20T08:11:38.831Z,7423
2019-03-20T08:12:38.868Z,7029
2019-03-20T08:13:38.922Z,6927
2019-03-20T08:14:38.972Z,6715
2019-03-20T08:15:39.029Z,6605
2019-03-20T08:16:39.088Z,6814
2019-03-20T08:17:39.137Z,7033
2019-03-20T08:18:39.187Z,6784
2019-03-20T08:19:39.240Z,7164
2019-03-20T08:20:39.276Z,7319
2019-03-20T08:21:39.344Z,7533
2019-03-20T08:22:39.390Z,7795
2019-03-20T08:23:39.459Z,8434
2019-03-20T08:24:39.495Z,9211
2019-03-20T08:25:39.586Z,9657
2019-03-20T08:26:39.685Z,10564
2019-03-20T08:27:39.726Z,11455
2019-03-20T08:28:39.769Z,12465
2019-03-20T08:29:39.823Z,11686
2019-03-20T08:30:39.924Z,11500
2019-03-20T08:31:39.958Z,12339
2019-03-20T08:32:40.008Z,6681
2019-03-20T08:33:40.097Z,6183
2019-03-20T08:34:40.142Z,6645
2019-03-20T08:35:40.201Z,8291
2019-03-20T08:36:40.308Z,18904
2019-03-20T08:37:40.377Z,23024
2019-03-20T08:38:40.449Z,23912
2019-03-20T08:39:40.498Z,24944
2019-03-20T08:40:40.568Z,16216
2019-03-20T08:41:40.689Z,30664
2019-03-20T08:42:40.723Z,25992
2019-03-20T08:43:40.771Z,26792
2019-03-20T08:44:40.814Z,20648
2019-03-20T08:45:40.879Z,27016
2019-03-20T08:46:40.940Z,29472
2019-03-20T08:47:41.042Z,16272
2019-03-20T08:48:41.112Z,16840
2019-03-20T08:49:41.209Z,16576
2019-03-20T08:50:41.254Z,15709
2019-03-20T08:51:41.311Z,15970
2019-03-20T08:52:41.389Z,14487
2019-03-20T08:53:41.431Z,14732
2019-03-20T08:54:41.474Z,16848
2019-03-20T08:55:41.518Z,17656
2019-03-20T08:56:41.592Z,27296
2019-03-20T08:57:41.689Z,18144
2019-03-20T08:58:41.744Z,17440
2019-03-20T08:59:41.797Z,15642
2019-03-20T09:00:41.837Z,14750
2019-03-20T09:01:41.925Z,14185
2019-03-20T09:02:42.011Z,14856
2019-03-20T09:03:42.114Z,16952
2019-03-20T09:04:42.183Z,14963
2019-03-20T09:05:42.225Z,14897
2019-03-20T09:06:42.268Z,14760
2019-03-20T09:07:47.073Z,14157
2019-03-20T09:08:42.383Z,15318
2019-03-20T09:09:42.479Z,18696
2019-03-20T09:10:42.520Z,31496
2019-03-20T09:11:42.574Z,35552
2019-03-20T09:12:42.659Z,30712
2019-03-20T09:13:42.713Z,25120
2019-03-20T09:14:42.787Z,29272
2019-03-20T09:15:42.834Z,20120
2019-03-20T09:16:42.887Z,17912
2019-03-20T09:17:43.012Z,17024
2019-03-20T09:18:43.014Z,16142
2019-03-20T09:19:43.071Z,18448
2019-03-20T09:20:43.161Z,16824
2019-03-20T09:21:43.207Z,22640
2019-03-20T09:22:43.290Z,24272
2019-03-20T09:23:43.331Z,21336
2019-03-20T09:24:43.418Z,20176
2019-03-20T09:25:43.445Z,18544
2019-03-20T09:26:43.555Z,17928
2019-03-20T09:27:43.641Z,15820
2019-03-20T09:28:43.691Z,15472
2019-03-20T09:29:43.729Z,17096
2019-03-20T09:30:43.776Z,16808
2019-03-20T09:31:43.845Z,17808
2019-03-20T09:32:43.925Z,17648
2019-03-20T09:33:44.011Z,18576
2019-03-20T09:34:44.102Z,19768
2019-03-20T09:35:44.149Z,20296
2019-03-20T09:36:44.205Z,20208
2019-03-20T09:37:51.586Z,20424
2019-03-20T09:38:44.325Z,20904
2019-03-20T09:39:44.461Z,21296
2019-03-20T09:40:44.541Z,21936
2019-03-20T09:41:44.607Z,21104
2019-03-20T09:42:44.766Z,20712
2019-03-20T09:43:44.751Z,21256
2019-03-20T09:44:44.856Z,23240
2019-03-20T09:45:44.909Z,23200
2019-03-20T09:46:44.898Z,22168
2019-03-20T09:47:44.928Z,21448
2019-03-20T09:48:45.035Z,20840
2019-03-20T09:49:45.082Z,21192
2019-03-20T09:50:45.106Z,20352
2019-03-20T09:51:45.119Z,20488
2019-03-20T09:52:45.267Z,20408
2019-03-20T09:53:45.278Z,20248
2019-03-20T09:54:45.334Z,18696
2019-03-20T09:55:45.438Z,18264
2019-03-20T09:56:45.520Z,18288
2019-03-20T09:57:45.690Z,17824
2019-03-20T09:58:45.705Z,16560
2019-03-20T09:59:45.991Z,17272
2019-03-20T10:00:45.722Z,17120
2019-03-20T10:01:45.725Z,18328
2019-03-20T10:02:45.816Z,20024
2019-03-20T10:03:45.833Z,20488
2019-03-20T10:04:45.916Z,22216
2019-03-20T10:05:45.914Z,21736
2019-03-20T10:06:45.913Z,22432
2019-03-20T10:07:45.990Z,24320
2019-03-20T10:08:53.728Z,25552
2019-03-20T10:09:46.115Z,22072
2019-03-20T10:10:46.143Z,25240
2019-03-20T10:11:46.182Z,23376
2019-03-20T10:12:46.164Z,23704
2019-03-20T10:13:46.178Z,25624
2019-03-20T10:14:46.191Z,23680
2019-03-20T10:15:46.209Z,25352
2019-03-20T10:16:46.227Z,27104
2019-03-20T10:17:46.296Z,23024
2019-03-20T10:18:46.302Z,22360
2019-03-20T10:19:46.360Z,22472
2019-03-20T10:20:46.472Z,22368
2019-03-20T10:21:46.529Z,22960
2019-03-20T10:22:46.625Z,24992
2019-03-20T10:23:46.683Z,26728
2019-03-20T10:24:46.707Z,25304
2019-03-20T10:25:46.754Z,23296
2019-03-20T10:26:46.788Z,21840
2019-03-20T10:27:46.939Z,21672
2019-03-20T10:28:46.932Z,21240
2019-03-20T10:29:47.057Z,20952
2019-03-20T10:30:47.070Z,21288
2019-03-20T10:31:47.137Z,21944
2019-03-20T10:32:47.194Z,23216
2019-03-20T10:33:47.195Z,24152
2019-03-20T10:34:47.229Z,25560
2019-03-20T10:35:50.374Z,25824
2019-03-20T10:36:47.257Z,25472
2019-03-20T10:37:47.373Z,25280
2019-03-20T10:38:48.678Z,26528
2019-03-20T10:39:48.432Z,26464
2019-03-20T10:40:47.504Z,25232
2019-03-20T10:41:47.547Z,24072
2019-03-20T10:42:47.737Z,23624
2019-03-20T10:43:47.696Z,23016
2019-03-20T10:44:47.812Z,23104
2019-03-20T10:45:47.856Z,23016
2019-03-20T10:46:47.905Z,19680
2019-03-20T10:47:47.988Z,16664
2019-03-20T10:48:48.101Z,17016
2019-03-20T10:49:48.171Z,16379
2019-03-20T10:50:48.229Z,17304
2019-03-20T10:51:48.301Z,18096
2019-03-20T10:52:48.379Z,18456
2019-03-20T10:53:48.436Z,17336
2019-03-20T10:54:48.465Z,17176
2019-03-20T10:55:48.517Z,17192
2019-03-20T10:56:48.557Z,17904
2019-03-20T10:57:48.670Z,17992
2019-03-20T10:58:48.715Z,18008
2019-03-20T10:59:48.798Z,17136
2019-03-20T11:00:48.850Z,17960
2019-03-20T11:01:48.965Z,20736
2019-03-20T11:02:49.013Z,23432
2019-03-20T11:03:49.117Z,25408
2019-03-20T11:04:49.160Z,26032
2019-03-20T11:05:49.213Z,28824
2019-03-20T11:06:49.278Z,31952
2019-03-20T11:07:49.352Z,30552
2019-03-20T11:08:49.441Z,28208
2019-03-20T11:09:49.506Z,27424
2019-03-20T11:10:49.540Z,28376
2019-03-20T11:11:49.613Z,25432
2019-03-20T11:12:49.645Z,23360
2019-03-20T11:13:49.745Z,22168
2019-03-20T11:14:49.790Z,21336
2019-03-20T11:15:49.834Z,20624
2019-03-20T11:16:49.894Z,21416
2019-03-20T11:17:49.946Z,22520
2019-03-20T11:18:50.049Z,23920
2019-03-20T11:19:50.098Z,25744
2019-03-20T11:20:50.132Z,25104
2019-03-20T11:21:50.194Z,25808
2019-03-20T11:22:50.249Z,25968
2019-03-20T11:23:50.325Z,27408
2019-03-20T11:24:50.496Z,32528
2019-03-20T11:25:50.432Z,38256
2019-03-20T11:26:51.473Z,44632
2019-03-20T11:27:50.509Z,38384
2019-03-20T11:28:50.597Z,33824
2019-03-20T11:29:50.656Z,35688
2019-03-20T11:30:50.707Z,33160
2019-03-20T11:31:50.783Z,33568
2019-03-20T11:32:50.918Z,32416
2019-03-20T11:33:50.996Z,29192
2019-03-20T11:34:51.034Z,30552
2019-03-20T11:35:51.087Z,32320
2019-03-20T11:36:51.123Z,35416
2019-03-20T11:37:51.172Z,39888
2019-03-20T11:38:51.268Z,34800
2019-03-20T11:39:52.685Z,30632
2019-03-20T11:40:51.360Z,25736
2019-03-20T11:41:51.410Z,23600
2019-03-20T11:42:51.469Z,24296
2019-03-20T11:43:51.575Z,25944
2019-03-20T11:44:51.633Z,27816
2019-03-20T11:45:51.675Z,29336
2019-03-20T11:46:51.739Z,30832
2019-03-20T11:47:51.793Z,33488
2019-03-20T11:48:51.859Z,32496
2019-03-20T11:49:51.902Z,33192
2019-03-20T11:50:51.948Z,28512
2019-03-20T11:51:51.992Z,27352
2019-03-20T11:52:52.060Z,27520
2019-03-20T11:53:52.119Z,23968
2019-03-20T11:54:52.167Z,21464
2019-03-20T11:55:52.227Z,19144
2019-03-20T11:56:52.267Z,16832
2019-03-20T11:57:52.319Z,15796
2019-03-20T11:58:52.417Z,15606
2019-03-20T11:59:52.479Z,15896
2019-03-20T12:00:52.562Z,16944
2019-03-20T12:01:52.603Z,16800
2019-03-20T12:02:52.648Z,17024
2019-03-20T12:03:52.720Z,16036
2019-03-20T12:04:53.961Z,13795
2019-03-20T12:05:52.838Z,11705
2019-03-20T12:06:52.899Z,11831
2019-03-20T12:07:52.936Z,12095
2019-03-20T12:08:53.012Z,11477
2019-03-20T12:09:52.985Z,10512
2019-03-20T12:10:53.022Z,9999
2019-03-20T12:11:53.056Z,9650
2019-03-20T12:12:53.102Z,9438
2019-03-20T12:13:53.165Z,9262
2019-03-20T12:14:53.208Z,9147
2019-03-20T12:15:53.277Z,8963
2019-03-20T12:16:53.329Z,9076
2019-03-20T12:17:53.395Z,8846
2019-03-20T12:18:53.461Z,8756
2019-03-20T12:19:53.508Z,8661
2019-03-20T12:20:53.562Z,8614
2019-03-20T12:21:53.595Z,8513
2019-03-20T12:22:53.637Z,8401
2019-03-20T12:23:53.733Z,8272
2019-03-20T12:24:53.780Z,8008
2019-03-20T12:25:53.852Z,7812
2019-03-20T12:26:53.970Z,7684
2019-03-20T12:27:54.022Z,7644
2019-03-20T12:28:54.105Z,7631
2019-03-20T12:29:54.140Z,7582
2019-03-20T12:30:54.193Z,7408
2019-03-20T12:31:54.273Z,7149
2019-03-20T12:32:54.319Z,6990
2019-03-20T12:33:54.423Z,6819
2019-03-20T12:34:54.491Z,6741
2019-03-20T12:35:54.531Z,6792
2019-03-20T12:36:56.520Z,7210
2019-03-20T12:37:54.611Z,7447
2019-03-20T12:38:55.767Z,7807
2019-03-20T12:39:54.778Z,8335
2019-03-20T12:40:54.821Z,8846
2019-03-20T12:41:54.858Z,9276
2019-03-20T12:42:54.914Z,10001
2019-03-20T12:43:55.007Z,10387
2019-03-20T12:44:55.049Z,10451
2019-03-20T12:45:55.108Z,10249
2019-03-20T12:46:55.164Z,9903
2019-03-20T12:47:55.219Z,9072
2019-03-20T12:48:55.304Z,9039
2019-03-20T12:49:55.362Z,9041
2019-03-20T12:50:55.401Z,8994
2019-03-20T12:51:55.438Z,8782
2019-03-20T12:52:55.525Z,8558
2019-03-20T12:53:55.642Z,8459
2019-03-20T12:54:55.702Z,8378
2019-03-20T12:55:55.751Z,8328
2019-03-20T12:56:55.810Z,8457
2019-03-20T12:57:55.858Z,8477
2019-03-20T12:58:55.977Z,8458
2019-03-20T12:59:56.081Z,8584
2019-03-20T13:00:56.154Z,8904
2019-03-20T13:01:56.862Z,9625
2019-03-20T13:02:56.241Z,9970
2019-03-20T13:03:56.368Z,10339
2019-03-20T13:04:56.466Z,10434
2019-03-20T13:05:56.515Z,10468
2019-03-20T13:06:56.555Z,10595
2019-03-20T13:08:01.792Z,10688
2019-03-20T13:08:57.603Z,10763
2019-03-20T13:10:02.961Z,10833
2019-03-20T13:10:56.696Z,10612
2019-03-20T13:11:56.749Z,10480
2019-03-20T13:12:56.785Z,10333
2019-03-20T13:13:56.862Z,9834
2019-03-20T13:14:57.094Z,9628
2019-03-20T13:15:56.990Z,8962
2019-03-20T13:16:57.042Z,8666
2019-03-20T13:17:57.090Z,8402
2019-03-20T13:18:57.148Z,8149
2019-03-20T13:19:57.221Z,7883
2019-03-20T13:20:57.279Z,7554
2019-03-20T13:21:57.320Z,7241
2019-03-20T13:22:57.393Z,7116
2019-03-20T13:23:57.443Z,6802
2019-03-20T13:24:57.580Z,6592
2019-03-20T13:25:57.620Z,6807
2019-03-20T13:26:57.646Z,6740
2019-03-20T13:27:57.698Z,6727
2019-03-20T13:28:57.746Z,6714
2019-03-20T13:29:57.873Z,6440
2019-03-20T13:30:57.962Z,6346
2019-03-20T13:31:58.000Z,6075
2019-03-20T13:32:58.045Z,6077
2019-03-20T13:33:58.104Z,6591
2019-03-20T13:34:58.205Z,6425
2019-03-20T13:35:58.259Z,6637
2019-03-20T13:36:58.315Z,6627
2019-03-20T13:37:58.350Z,6624
2019-03-20T13:38:58.404Z,6579
2019-03-20T13:39:58.468Z,6410
2019-03-20T13:40:59.523Z,6383
2019-03-20T13:41:58.526Z,6445
2019-03-20T13:42:58.573Z,6650
2019-03-20T13:43:58.624Z,7017
2019-03-20T13:44:58.682Z,7362
2019-03-20T13:45:58.730Z,7742